Time;durP1;ratioP1;P1;durP2;ratioP2;P2;SDS_P1;SDS_P2;PMS_P1;PMS_P2;Temp;Humidity;BMP_temperature;BMP_pressure;BME280_temperature;BME280_humidity;BME280_pressure;Samples;Min_cycle;Max_cycle;Signal;HPM_P1;HPM_P2
2023/08/30 00:01:11;;;;;;;;;;;21.60;71.20;;;;;;5049835;28;1383;-66
2023/08/30 00:03:37;;;;;;;;;;;21.60;71.20;;;;;;5051925;28;914;-65
2023/08/30 00:06:03;;;;;;;;;;;21.50;71.20;;;;;;5053470;28;815;-65
2023/08/30 00:08:29;;;;;;;;;;;21.60;71.30;;;;;;5052631;28;914;-65
2023/08/30 00:10:56;;;;;;;;;;;21.60;71.20;;;;;;5053180;28;1190;-66
2023/08/30 00:13:21;;;;;;;;;;;21.60;71.30;;;;;;5052825;28;960;-66
2023/08/30 00:15:47;;;;;;;;;;;21.60;71.30;;;;;;5053444;28;1975;-66
2023/08/30 00:18:12;;;;;;;;;;;21.60;71.40;;;;;;5052405;28;948;-65
2023/08/30 00:20:38;;;;;;;;;;;21.60;71.30;;;;;;5052715;28;1410;-66
2023/08/30 00:23:04;;;;;;;;;;;21.60;71.30;;;;;;5052639;28;1011;-66
2023/08/30 00:25:30;;;;;;;;;;;21.60;71.30;;;;;;5053119;28;832;-66
2023/08/30 00:27:55;;;;;;;;;;;21.50;71.20;;;;;;5051862;28;1312;-65
2023/08/30 00:30:21;;;;;;;;;;;21.60;71.40;;;;;;5052640;28;1349;-66
2023/08/30 00:32:46;;;;;;;;;;;21.50;71.30;;;;;;5053094;28;792;-65
2023/08/30 00:35:11;;;;;;;;;;;21.60;71.30;;;;;;5052575;28;1906;-66
2023/08/30 00:37:37;;;;;;;;;;;21.60;71.40;;;;;;5052795;28;942;-66
2023/08/30 00:40:03;;;;;;;;;;;21.50;71.30;;;;;;5052250;28;1361;-66
2023/08/30 00:42:28;;;;;;;;;;;21.60;71.50;;;;;;5052381;28;867;-65
2023/08/30 00:44:53;;;;;;;;;;;21.60;71.40;;;;;;5052569;28;804;-65
2023/08/30 00:47:19;;;;;;;;;;;21.60;71.40;;;;;;5052833;28;934;-66
2023/08/30 00:49:45;;;;;;;;;;;21.60;71.40;;;;;;5047149;28;1255;-66
2023/08/30 00:52:10;;;;;;;;;;;21.50;71.40;;;;;;5052359;28;1375;-66
2023/08/30 00:54:35;;;;;;;;;;;21.60;71.40;;;;;;5051716;28;1910;-66
2023/08/30 00:57:01;;;;;;;;;;;21.60;71.40;;;;;;5053130;28;844;-66
2023/08/30 00:59:27;;;;;;;;;;;21.60;71.40;;;;;;5052056;28;1347;-66
2023/08/30 01:01:53;;;;;;;;;;;21.60;71.40;;;;;;5052204;28;962;-65
2023/08/30 01:04:19;;;;;;;;;;;21.50;71.40;;;;;;5048437;28;865;-65
2023/08/30 01:06:44;;;;;;;;;;;21.60;71.50;;;;;;5051710;28;891;-66
2023/08/30 01:09:10;;;;;;;;;;;21.60;71.50;;;;;;5051033;28;1695;-65
2023/08/30 01:11:36;;;;;;;;;;;21.50;71.40;;;;;;5051689;28;842;-65
2023/08/30 01:14:09;;;;;;;;;;;21.60;71.50;;;;;;5044251;28;871;-66
2023/08/30 01:16:37;;;;;;;;;;;21.60;71.50;;;;;;5038736;28;1949;-65
2023/08/30 01:19:15;;;;;;;;;;;21.60;71.50;;;;;;5046566;28;1437;-66
2023/08/30 01:21:48;;;;;;;;;;;21.50;71.50;;;;;;5051495;28;956;-65
2023/08/30 01:24:14;;;;;;;;;;;21.60;71.60;;;;;;5044598;28;894;-65
2023/08/30 01:26:58;;;;;;;;;;;21.60;71.60;;;;;;5042919;28;974;-66
2023/08/30 01:29:24;;;;;;;;;;;21.60;71.50;;;;;;5050521;28;1502;-66
2023/08/30 01:31:49;;;;;;;;;;;21.50;71.50;;;;;;5046523;28;1305;-66
2023/08/30 01:34:15;;;;;;;;;;;21.50;71.50;;;;;;5051865;28;894;-65
2023/08/30 01:36:42;;;;;;;;;;;21.50;71.50;;;;;;5045334;28;1967;-65
2023/08/30 01:39:08;;;;;;;;;;;21.60;71.60;;;;;;5049579;28;1289;-66
2023/08/30 01:41:34;;;;;;;;;;;21.60;71.70;;;;;;5043093;28;1402;-66
2023/08/30 01:44:03;;;;;;;;;;;21.60;72.30;;;;;;5043668;28;1237;-66
2023/08/30 01:46:29;;;;;;;;;;;21.60;71.60;;;;;;5050942;28;934;-65
2023/08/30 01:48:54;;;;;;;;;;;21.60;71.60;;;;;;5049910;28;831;-66
2023/08/30 01:51:20;;;;;;;;;;;21.60;71.70;;;;;;5050975;28;1310;-66
2023/08/30 01:53:45;;;;;;;;;;;21.60;71.60;;;;;;5050985;28;890;-66
2023/08/30 01:56:11;;;;;;;;;;;21.60;71.60;;;;;;5050800;28;1965;-66
2023/08/30 01:58:36;;;;;;;;;;;21.60;71.60;;;;;;5049822;28;902;-65
2023/08/30 02:01:02;;;;;;;;;;;21.60;71.70;;;;;;5044463;28;1365;-66
2023/08/30 02:03:27;;;;;;;;;;;21.50;71.60;;;;;;5050669;28;1434;-66
2023/08/30 02:05:56;;;;;;;;;;;21.50;71.60;;;;;;5051048;28;1462;-66
2023/08/30 02:08:21;;;;;;;;;;;21.60;71.60;;;;;;5050009;28;1331;-67
2023/08/30 02:10:55;;;;;;;;;;;21.60;71.60;;;;;;5049258;28;1441;-67
2023/08/30 02:13:22;;;;;;;;;;;21.60;71.60;;;;;;5049648;28;1782;-67
2023/08/30 02:15:48;;;;;;;;;;;21.60;71.60;;;;;;5050551;28;1975;-67
2023/08/30 02:18:13;;;;;;;;;;;21.50;71.60;;;;;;5045896;28;1424;-66
2023/08/30 02:20:38;;;;;;;;;;;21.60;71.70;;;;;;5045469;28;1270;-67
2023/08/30 02:23:04;;;;;;;;;;;21.60;71.70;;;;;;5050579;28;879;-66
2023/08/30 02:25:29;;;;;;;;;;;21.60;71.70;;;;;;5050511;28;1029;-66
2023/08/30 02:27:55;;;;;;;;;;;21.60;71.70;;;;;;5050108;28;1050;-66
2023/08/30 02:30:20;;;;;;;;;;;21.60;71.70;;;;;;5050047;28;1321;-66
2023/08/30 02:32:46;;;;;;;;;;;21.50;71.70;;;;;;5051003;28;1260;-66
2023/08/30 02:35:11;;;;;;;;;;;21.60;71.70;;;;;;5050488;28;1963;-66
2023/08/30 02:37:37;;;;;;;;;;;21.50;71.60;;;;;;5050837;28;832;-67
2023/08/30 02:40:02;;;;;;;;;;;21.60;71.70;;;;;;5049938;28;1253;-67
2023/08/30 02:42:28;;;;;;;;;;;21.60;71.80;;;;;;5050625;28;883;-67
2023/08/30 02:44:53;;;;;;;;;;;21.50;71.70;;;;;;5051095;28;915;-67
2023/08/30 02:47:19;;;;;;;;;;;21.60;71.70;;;;;;5051229;28;858;-66
2023/08/30 02:49:44;;;;;;;;;;;21.60;71.70;;;;;;5049834;28;1331;-66
2023/08/30 02:52:10;;;;;;;;;;;21.60;71.80;;;;;;5044901;28;839;-67
2023/08/30 02:54:35;;;;;;;;;;;21.50;71.70;;;;;;5050126;28;1474;-67
2023/08/30 02:57:01;;;;;;;;;;;21.60;71.80;;;;;;5050126;28;1889;-67
2023/08/30 02:59:26;;;;;;;;;;;21.50;71.70;;;;;;5049517;28;1447;-67
2023/08/30 03:01:52;;;;;;;;;;;21.50;71.70;;;;;;5050399;28;863;-66
2023/08/30 03:04:17;;;;;;;;;;;21.60;71.80;;;;;;5050265;28;842;-66
2023/08/30 03:06:43;;;;;;;;;;;21.60;71.80;;;;;;5050067;28;1162;-66
2023/08/30 03:09:08;;;;;;;;;;;21.60;71.80;;;;;;5049189;28;1253;-66
2023/08/30 03:11:33;;;;;;;;;;;21.60;71.80;;;;;;5049981;28;887;-66
2023/08/30 03:13:59;;;;;;;;;;;21.60;71.80;;;;;;5049980;28;816;-66
2023/08/30 03:16:24;;;;;;;;;;;21.50;71.70;;;;;;5050024;28;1914;-66
2023/08/30 03:18:50;;;;;;;;;;;21.50;71.70;;;;;;5049168;28;922;-66
2023/08/30 03:21:15;;;;;;;;;;;21.50;71.80;;;;;;5045965;28;1299;-66
2023/08/30 03:23:41;;;;;;;;;;;21.50;71.80;;;;;;5049459;28;887;-66
2023/08/30 03:26:10;;;;;;;;;;;21.50;71.70;;;;;;5049805;28;796;-66
2023/08/30 03:28:36;;;;;;;;;;;21.60;71.80;;;;;;5041492;28;1300;-66
2023/08/30 03:31:01;;;;;;;;;;;21.50;71.80;;;;;;5041747;28;1295;-66
2023/08/30 03:33:27;;;;;;;;;;;21.50;71.80;;;;;;5044467;28;1209;-66
2023/08/30 03:35:52;;;;;;;;;;;21.60;71.90;;;;;;5049711;28;1973;-66
2023/08/30 03:38:17;;;;;;;;;;;21.60;71.90;;;;;;5051426;28;904;-66
2023/08/30 03:40:43;;;;;;;;;;;21.60;71.90;;;;;;5053881;28;1256;-66
2023/08/30 03:43:08;;;;;;;;;;;21.60;71.90;;;;;;5053755;28;1117;-67
2023/08/30 03:45:35;;;;;;;;;;;21.50;71.80;;;;;;5053991;28;871;-66
2023/08/30 03:48:01;;;;;;;;;;;21.50;71.80;;;;;;5053353;28;814;-66
2023/08/30 03:50:26;;;;;;;;;;;21.60;71.90;;;;;;5053905;28;1330;-68
2023/08/30 03:52:51;;;;;;;;;;;21.50;71.90;;;;;;5053725;28;1073;-67
2023/08/30 03:55:17;;;;;;;;;;;21.50;71.90;;;;;;5053537;28;1898;-67
2023/08/30 03:57:42;;;;;;;;;;;21.50;71.90;;;;;;5053580;28;951;-67
2023/08/30 04:00:08;;;;;;;;;;;21.50;71.90;;;;;;5052738;28;1374;-67
2023/08/30 04:02:34;;;;;;;;;;;21.50;71.90;;;;;;5053428;28;851;-67
2023/08/30 04:04:59;;;;;;;;;;;21.50;71.90;;;;;;5053653;28;881;-67
2023/08/30 04:07:24;;;;;;;;;;;21.50;72.00;;;;;;5053578;28;884;-68
2023/08/30 04:09:50;;;;;;;;;;;21.50;71.90;;;;;;5052257;28;1355;-68
2023/08/30 04:12:15;;;;;;;;;;;21.50;71.90;;;;;;5053576;28;820;-68
2023/08/30 04:14:41;;;;;;;;;;;21.50;71.90;;;;;;5053462;28;814;-68
2023/08/30 04:17:06;;;;;;;;;;;21.50;71.90;;;;;;5053410;28;1894;-67
2023/08/30 04:19:32;;;;;;;;;;;21.50;71.90;;;;;;5052833;28;1371;-68
2023/08/30 04:21:57;;;;;;;;;;;21.50;71.90;;;;;;5053294;28;806;-67
2023/08/30 04:24:22;;;;;;;;;;;21.50;71.90;;;;;;5052952;28;957;-68
2023/08/30 04:26:51;;;;;;;;;;;21.50;72.00;;;;;;5053357;28;1042;-67
2023/08/30 04:29:17;;;;;;;;;;;21.50;71.90;;;;;;5052991;28;1281;-67
2023/08/30 04:31:45;;;;;;;;;;;21.50;72.00;;;;;;5053668;28;1254;-67
2023/08/30 04:34:10;;;;;;;;;;;21.50;72.00;;;;;;5053939;28;859;-67
2023/08/30 04:36:36;;;;;;;;;;;21.50;72.00;;;;;;5052820;28;1951;-67
2023/08/30 04:39:02;;;;;;;;;;;21.50;72.00;;;;;;5052049;28;959;-67
2023/08/30 04:41:27;;;;;;;;;;;21.50;72.00;;;;;;5052946;28;1305;-67
2023/08/30 04:43:53;;;;;;;;;;;21.50;72.00;;;;;;5052717;28;1029;-67
2023/08/30 04:46:18;;;;;;;;;;;21.50;72.00;;;;;;5052638;28;803;-67
2023/08/30 04:48:44;;;;;;;;;;;21.50;72.00;;;;;;5051108;28;1203;-67
2023/08/30 04:51:09;;;;;;;;;;;21.50;72.00;;;;;;5052386;28;1360;-67
2023/08/30 04:53:34;;;;;;;;;;;21.50;72.10;;;;;;5052103;28;1529;-67
2023/08/30 04:56:00;;;;;;;;;;;21.50;72.00;;;;;;5052204;28;1959;-67
2023/08/30 04:58:25;;;;;;;;;;;21.50;72.00;;;;;;5050814;28;910;-67
2023/08/30 05:00:51;;;;;;;;;;;21.50;72.10;;;;;;5050923;28;1288;-67
2023/08/30 05:03:16;;;;;;;;;;;21.50;72.10;;;;;;5052978;28;887;-67
2023/08/30 05:05:44;;;;;;;;;;;21.50;72.10;;;;;;5053281;28;1018;-67
2023/08/30 05:08:11;;;;;;;;;;;21.50;72.10;;;;;;5051569;28;978;-67
2023/08/30 05:10:36;;;;;;;;;;;21.50;72.10;;;;;;5052270;28;1248;-67
2023/08/30 05:13:03;;;;;;;;;;;21.50;72.10;;;;;;5050953;28;871;-67
2023/08/30 05:15:29;;;;;;;;;;;21.50;72.10;;;;;;5050378;28;1967;-68
2023/08/30 05:17:54;;;;;;;;;;;21.50;72.10;;;;;;5053061;28;875;-68
2023/08/30 05:20:20;;;;;;;;;;;21.50;72.10;;;;;;5053078;28;1401;-68
2023/08/30 05:22:45;;;;;;;;;;;21.50;72.10;;;;;;5053212;28;898;-67
2023/08/30 05:25:10;;;;;;;;;;;21.50;72.10;;;;;;5052465;28;1296;-68
2023/08/30 05:27:36;;;;;;;;;;;21.50;72.20;;;;;;5052181;28;963;-67
2023/08/30 05:30:03;;;;;;;;;;;21.50;72.10;;;;;;5051226;28;1270;-67
2023/08/30 05:32:28;;;;;;;;;;;21.50;72.10;;;;;;5051924;28;901;-68
2023/08/30 05:34:54;;;;;;;;;;;21.50;72.20;;;;;;5050656;28;1905;-68
2023/08/30 05:37:19;;;;;;;;;;;21.50;72.20;;;;;;5051811;28;828;-68
2023/08/30 05:39:44;;;;;;;;;;;21.50;72.20;;;;;;5051454;28;1259;-68
2023/08/30 05:42:10;;;;;;;;;;;21.50;72.20;;;;;;5051697;28;920;-68
2023/08/30 05:44:35;;;;;;;;;;;21.50;72.20;;;;;;5051632;28;852;-68
2023/08/30 05:47:01;;;;;;;;;;;21.50;72.20;;;;;;5051832;28;895;-68
2023/08/30 05:49:26;;;;;;;;;;;21.50;72.20;;;;;;5056421;28;1345;-68
2023/08/30 05:51:52;;;;;;;;;;;21.50;72.20;;;;;;5044776;28;958;-67
2023/08/30 05:54:17;;;;;;;;;;;21.50;72.20;;;;;;5051492;28;907;-67
2023/08/30 05:56:43;;;;;;;;;;;21.50;72.20;;;;;;5051320;28;1906;-67
2023/08/30 05:59:09;;;;;;;;;;;21.50;72.20;;;;;;5050611;28;1380;-67
2023/08/30 06:01:35;;;;;;;;;;;21.50;72.20;;;;;;5051247;28;895;-67
2023/08/30 06:04:00;;;;;;;;;;;21.50;72.20;;;;;;5051533;28;898;-67
2023/08/30 06:06:27;;;;;;;;;;;21.50;72.20;;;;;;5052066;28;876;-67
2023/08/30 06:08:52;;;;;;;;;;;21.50;72.20;;;;;;5049179;28;876;-67
2023/08/30 06:11:18;;;;;;;;;;;21.50;72.20;;;;;;5051445;28;1298;-67
2023/08/30 06:13:44;;;;;;;;;;;21.50;72.20;;;;;;5051436;28;828;-67
2023/08/30 06:16:09;;;;;;;;;;;21.50;72.30;;;;;;5050906;28;1909;-68
2023/08/30 06:18:37;;;;;;;;;;;21.50;72.30;;;;;;5039592;28;2112;-69
2023/08/30 06:21:03;;;;;;;;;;;21.50;72.20;;;;;;5045345;28;1343;-68
2023/08/30 06:23:29;;;;;;;;;;;21.50;72.20;;;;;;5049493;28;849;-68
2023/08/30 06:25:57;;;;;;;;;;;21.50;72.30;;;;;;5050380;28;784;-69
2023/08/30 06:28:23;;;;;;;;;;;21.50;72.20;;;;;;5049174;28;1335;-69
2023/08/30 06:30:48;;;;;;;;;;;21.50;72.20;;;;;;5051176;28;1274;-68
2023/08/30 06:33:14;;;;;;;;;;;21.50;72.20;;;;;;5049640;28;907;-69
2023/08/30 06:35:39;;;;;;;;;;;21.50;72.10;;;;;;5042004;28;1969;-68
2023/08/30 06:38:05;;;;;;;;;;;21.50;72.10;;;;;;5049338;28;1172;-67
2023/08/30 06:40:30;;;;;;;;;;;21.50;72.10;;;;;;5045230;28;1293;-66
2023/08/30 06:42:56;;;;;;;;;;;21.50;72.20;;;;;;5050173;28;869;-68
2023/08/30 06:45:22;;;;;;;;;;;21.50;72.20;;;;;;5048840;28;844;-69
2023/08/30 06:47:48;;;;;;;;;;;21.50;72.10;;;;;;5043175;28;919;-69
2023/08/30 06:50:14;;;;;;;;;;;21.50;72.10;;;;;;5049334;28;1385;-70
2023/08/30 06:52:39;;;;;;;;;;;21.50;72.10;;;;;;5048875;28;915;-70
2023/08/30 06:55:05;;;;;;;;;;;21.40;72.10;;;;;;5050140;28;1894;-71
2023/08/30 06:57:30;;;;;;;;;;;21.50;72.10;;;;;;5054590;28;1176;-69
2023/08/30 06:59:55;;;;;;;;;;;21.50;72.10;;;;;;5051103;28;1291;-69
2023/08/30 07:02:21;;;;;;;;;;;21.50;72.10;;;;;;5050400;28;853;-69
2023/08/30 07:04:46;;;;;;;;;;;21.50;72.20;;;;;;5049944;28;1361;-69
2023/08/30 07:07:12;;;;;;;;;;;21.40;72.10;;;;;;5051204;28;875;-70
2023/08/30 07:09:38;;;;;;;;;;;21.50;72.10;;;;;;5049714;28;1259;-70
2023/08/30 07:12:03;;;;;;;;;;;21.50;72.10;;;;;;5049527;28;836;-71
2023/08/30 07:14:29;;;;;;;;;;;21.50;72.10;;;;;;5050139;28;801;-71
2023/08/30 07:16:54;;;;;;;;;;;21.50;72.10;;;;;;5050016;28;1905;-70
2023/08/30 07:19:20;;;;;;;;;;;21.50;72.90;;;;;;5048348;28;1427;-69
2023/08/30 07:21:45;;;;;;;;;;;21.50;72.10;;;;;;5050223;28;1413;-70
2023/08/30 07:24:11;;;;;;;;;;;21.50;72.10;;;;;;5048443;28;1433;-70
2023/08/30 07:26:36;;;;;;;;;;;21.50;72.10;;;;;;5040859;28;1281;-70
2023/08/30 07:29:02;;;;;;;;;;;21.50;72.10;;;;;;5046465;28;1045;-70
2023/08/30 07:31:27;;;;;;;;;;;21.50;72.10;;;;;;5041761;28;1216;-70
2023/08/30 07:33:53;;;;;;;;;;;21.50;72.10;;;;;;5049826;28;810;-70
2023/08/30 07:36:18;;;;;;;;;;;21.50;72.00;;;;;;5050072;28;1901;-70
2023/08/30 07:38:43;;;;;;;;;;;21.50;72.10;;;;;;5048960;28;1392;-69
2023/08/30 07:41:09;;;;;;;;;;;21.50;72.00;;;;;;5049332;28;1369;-69
2023/08/30 07:43:35;;;;;;;;;;;21.50;72.10;;;;;;5049899;28;1520;-69
2023/08/30 07:46:00;;;;;;;;;;;21.50;72.10;;;;;;5049456;28;907;-69
2023/08/30 07:48:26;;;;;;;;;;;21.50;72.10;;;;;;5048884;28;1006;-69
2023/08/30 07:50:51;;;;;;;;;;;21.50;72.00;;;;;;5049440;28;1265;-69
2023/08/30 07:53:17;;;;;;;;;;;21.50;72.10;;;;;;5048701;28;1303;-69
2023/08/30 07:55:42;;;;;;;;;;;21.50;72.10;;;;;;5049569;28;1906;-69
2023/08/30 07:58:10;;;;;;;;;;;21.50;72.00;;;;;;5048811;28;856;-70
2023/08/30 08:00:35;;;;;;;;;;;21.50;72.10;;;;;;5050356;28;1274;-70
2023/08/30 08:03:04;;;;;;;;;;;21.50;72.10;;;;;;5050157;28;915;-70
2023/08/30 08:05:29;;;;;;;;;;;21.40;72.00;;;;;;5048956;28;839;-70
2023/08/30 08:07:58;;;;;;;;;;;21.40;72.00;;;;;;5050742;28;783;-70
2023/08/30 08:10:25;;;;;;;;;;;21.50;72.10;;;;;;5049817;28;1353;-70
2023/08/30 08:12:50;;;;;;;;;;;21.50;72.00;;;;;;5050133;28;852;-70
2023/08/30 08:15:16;;;;;;;;;;;21.40;72.00;;;;;;5049894;28;1962;-70
2023/08/30 08:17:41;;;;;;;;;;;21.50;72.00;;;;;;5049639;28;1610;-70
2023/08/30 08:20:07;;;;;;;;;;;21.50;72.00;;;;;;5047840;28;1966;-70
2023/08/30 08:22:32;;;;;;;;;;;21.40;72.00;;;;;;5050072;28;1257;-69
2023/08/30 08:24:58;;;;;;;;;;;21.50;72.00;;;;;;5052959;28;1390;-70
2023/08/30 08:27:26;;;;;;;;;;;21.40;72.00;;;;;;5053101;28;1252;-68
2023/08/30 08:29:52;;;;;;;;;;;21.50;72.00;;;;;;5052136;28;1733;-68
2023/08/30 08:32:17;;;;;;;;;;;21.50;72.10;;;;;;5052859;28;804;-68
2023/08/30 08:34:43;;;;;;;;;;;21.50;72.00;;;;;;5053080;28;1492;-68
2023/08/30 08:37:08;;;;;;;;;;;21.50;72.00;;;;;;5053153;28;1902;-67
2023/08/30 08:39:34;;;;;;;;;;;21.50;72.10;;;;;;5052545;28;1357;-69
2023/08/30 08:41:59;;;;;;;;;;;21.40;71.30;;;;;;5053110;28;882;-68
2023/08/30 08:44:25;;;;;;;;;;;21.50;71.30;;;;;;5044484;28;875;-66
2023/08/30 08:46:51;;;;;;;;;;;21.40;71.00;;;;;;5043077;28;971;-67
2023/08/30 08:49:17;;;;;;;;;;;21.50;71.20;;;;;;5051422;28;1262;-67
2023/08/30 08:51:43;;;;;;;;;;;21.40;71.00;;;;;;5052584;28;812;-66
2023/08/30 08:54:09;;;;;;;;;;;21.50;71.10;;;;;;5051887;28;1344;-67
2023/08/30 08:56:34;;;;;;;;;;;21.50;71.10;;;;;;5046134;28;1969;-66
2023/08/30 08:59:00;;;;;;;;;;;21.50;71.10;;;;;;5051589;28;891;-66
2023/08/30 09:01:26;;;;;;;;;;;21.40;71.00;;;;;;5052154;28;1246;-66
2023/08/30 09:03:51;;;;;;;;;;;21.50;71.10;;;;;;5046539;28;863;-66
2023/08/30 09:06:20;;;;;;;;;;;21.50;71.10;;;;;;5052098;28;915;-66
2023/08/30 09:08:46;;;;;;;;;;;21.40;71.00;;;;;;5051196;28;832;-66
2023/08/30 09:11:11;;;;;;;;;;;21.50;71.00;;;;;;5050909;28;1217;-66
2023/08/30 09:13:36;;;;;;;;;;;21.50;70.90;;;;;;5052358;28;891;-66
2023/08/30 09:16:05;;;;;;;;;;;21.50;70.80;;;;;;5051658;28;1980;-66
2023/08/30 09:18:30;;;;;;;;;;;21.40;70.70;;;;;;5044941;28;985;-66
2023/08/30 09:21:06;;;;;;;;;;;21.50;70.80;;;;;;5048933;28;1456;-66
2023/08/30 09:23:31;;;;;;;;;;;21.50;70.80;;;;;;5051146;28;829;-66
2023/08/30 09:25:57;;;;;;;;;;;21.50;70.70;;;;;;5051349;28;782;-66
2023/08/30 09:28:22;;;;;;;;;;;21.50;70.60;;;;;;5047286;28;864;-66
2023/08/30 09:30:51;;;;;;;;;;;21.50;71.40;;;;;;5049022;28;1211;-66
2023/08/30 09:33:20;;;;;;;;;;;21.40;70.50;;;;;;5045134;28;1279;-66
2023/08/30 09:35:45;;;;;;;;;;;21.40;70.50;;;;;;5036790;28;1973;-65
2023/08/30 09:38:20;;;;;;;;;;;21.40;70.40;;;;;;5049586;28;860;-65
2023/08/30 09:40:45;;;;;;;;;;;21.40;70.40;;;;;;5043775;28;1314;-65
2023/08/30 09:43:17;;;;;;;;;;;21.40;70.30;;;;;;5041203;28;893;-66
2023/08/30 09:45:43;;;;;;;;;;;21.40;70.20;;;;;;5040555;28;817;-66
2023/08/30 09:48:09;;;;;;;;;;;21.40;69.90;;;;;;5042470;28;996;-66
2023/08/30 09:50:35;;;;;;;;;;;21.40;69.60;;;;;;5051656;28;1280;-66
2023/08/30 09:53:08;;;;;;;;;;;21.40;70.20;;;;;;5045473;28;836;-66
2023/08/30 09:55:33;;;;;;;;;;;21.40;69.50;;;;;;5051172;28;1975;-66
2023/08/30 09:57:59;;;;;;;;;;;21.40;69.60;;;;;;5043460;28;861;-66
2023/08/30 10:00:25;;;;;;;;;;;21.40;69.50;;;;;;5043676;28;1315;-66
2023/08/30 10:02:50;;;;;;;;;;;21.40;69.60;;;;;;5050979;28;836;-66
2023/08/30 10:05:16;;;;;;;;;;;21.40;69.80;;;;;;5051024;28;918;-66
2023/08/30 10:07:41;;;;;;;;;;;21.40;69.60;;;;;;5050745;28;1098;-66
2023/08/30 10:10:07;;;;;;;;;;;21.40;69.50;;;;;;5044004;28;1365;-66
2023/08/30 10:12:32;;;;;;;;;;;21.40;69.50;;;;;;5049803;28;891;-66
2023/08/30 10:14:58;;;;;;;;;;;21.40;69.50;;;;;;5049903;28;1972;-67
2023/08/30 10:17:23;;;;;;;;;;;21.40;69.40;;;;;;5051109;28;883;-66
2023/08/30 10:19:49;;;;;;;;;;;21.40;69.50;;;;;;5045408;28;1401;-66
2023/08/30 10:22:15;;;;;;;;;;;21.40;69.20;;;;;;5050899;28;1096;-66
2023/08/30 10:24:51;;;;;;;;;;;21.40;69.40;;;;;;5045895;28;829;-66
2023/08/30 10:27:17;;;;;;;;;;;21.40;69.40;;;;;;5038923;28;1289;-66
2023/08/30 10:29:42;;;;;;;;;;;21.40;69.50;;;;;;5043247;28;1402;-67
2023/08/30 10:32:08;;;;;;;;;;;21.40;69.50;;;;;;5032706;28;1686;-66
2023/08/30 10:34:34;;;;;;;;;;;21.40;69.50;;;;;;5042267;28;840;-66
2023/08/30 10:37:02;;;;;;;;;;;21.40;69.50;;;;;;5050737;28;1977;-66
2023/08/30 10:39:40;;;;;;;;;;;21.40;69.30;;;;;;5049620;28;1263;-66
2023/08/30 10:42:15;;;;;;;;;;;21.40;69.10;;;;;;5039891;28;856;-67
2023/08/30 10:44:48;;;;;;;;;;;21.40;69.10;;;;;;5041761;28;900;-67
2023/08/30 10:47:20;;;;;;;;;;;21.40;68.90;;;;;;5050517;28;877;-67
2023/08/30 10:49:48;;;;;;;;;;;21.40;68.10;;;;;;5047465;28;1295;-67
2023/08/30 10:52:14;;;;;;;;;;;21.40;67.90;;;;;;5041291;28;1674;-67
2023/08/30 10:54:40;;;;;;;;;;;21.50;68.00;;;;;;5049558;28;905;-68
2023/08/30 10:57:08;;;;;;;;;;;21.40;68.10;;;;;;5040802;28;2200;-68
2023/08/30 10:59:33;;;;;;;;;;;21.40;68.30;;;;;;5040309;28;2114;-68
2023/08/30 11:02:00;;;;;;;;;;;21.40;68.20;;;;;;5040957;28;1522;-68
2023/08/30 11:04:26;;;;;;;;;;;21.40;68.10;;;;;;5047420;28;2167;-65
2023/08/30 11:06:51;;;;;;;;;;;21.40;67.90;;;;;;5049068;28;1116;-68
2023/08/30 11:09:20;;;;;;;;;;;21.40;67.90;;;;;;5042402;28;1366;-67
2023/08/30 11:11:46;;;;;;;;;;;21.40;67.70;;;;;;5049347;28;1082;-67
2023/08/30 11:14:12;;;;;;;;;;;21.40;67.60;;;;;;5043318;28;930;-65
2023/08/30 11:16:38;;;;;;;;;;;21.40;67.60;;;;;;5049042;28;1914;-66
2023/08/30 11:19:03;;;;;;;;;;;21.40;67.70;;;;;;5044720;28;1393;-67
2023/08/30 11:21:29;;;;;;;;;;;21.40;67.80;;;;;;5049078;28;1323;-66
2023/08/30 11:23:55;;;;;;;;;;;21.40;67.90;;;;;;5049411;28;856;-67
2023/08/30 11:26:20;;;;;;;;;;;21.40;68.00;;;;;;5049265;28;880;-67
2023/08/30 11:28:48;;;;;;;;;;;21.40;68.00;;;;;;5047770;28;1404;-66
2023/08/30 11:31:20;;;;;;;;;;;21.40;68.00;;;;;;5047608;28;1256;-66
2023/08/30 11:33:55;;;;;;;;;;;21.40;67.90;;;;;;5049475;28;1251;-65
2023/08/30 11:36:26;;;;;;;;;;;21.40;67.90;;;;;;5041565;28;1914;-68
2023/08/30 11:38:52;;;;;;;;;;;21.40;67.70;;;;;;5049397;28;1222;-68
2023/08/30 11:41:17;;;;;;;;;;;21.40;67.70;;;;;;5048328;28;2218;-68
2023/08/30 11:43:43;;;;;;;;;;;21.40;67.50;;;;;;5031496;28;1310;-67
2023/08/30 11:46:09;;;;;;;;;;;21.40;67.60;;;;;;5040614;28;982;-68
2023/08/30 11:48:34;;;;;;;;;;;21.40;67.60;;;;;;5047113;28;1246;-67
2023/08/30 11:51:00;;;;;;;;;;;21.40;67.80;;;;;;5049060;28;1480;-67
2023/08/30 11:53:25;;;;;;;;;;;21.40;67.60;;;;;;5045962;28;935;-67
2023/08/30 11:55:51;;;;;;;;;;;21.40;67.70;;;;;;5041312;28;1902;-68
2023/08/30 11:58:17;;;;;;;;;;;21.40;67.80;;;;;;5041727;28;913;-67
2023/08/30 12:00:43;;;;;;;;;;;21.40;67.80;;;;;;5053147;28;1502;-67
2023/08/30 12:03:08;;;;;;;;;;;21.40;67.70;;;;;;5044470;28;899;-67
2023/08/30 12:05:35;;;;;;;;;;;21.40;67.70;;;;;;5053718;28;887;-67
2023/08/30 12:08:00;;;;;;;;;;;21.40;67.70;;;;;;5046397;28;855;-67
2023/08/30 12:10:27;;;;;;;;;;;21.40;67.70;;;;;;5053748;28;1303;-67
2023/08/30 12:12:52;;;;;;;;;;;21.40;67.70;;;;;;5046211;28;1561;-68
2023/08/30 12:15:19;;;;;;;;;;;21.40;67.80;;;;;;5051354;28;2241;-67
2023/08/30 12:17:44;;;;;;;;;;;21.40;67.60;;;;;;5051843;28;1439;-68
2023/08/30 12:20:23;;;;;;;;;;;21.40;67.70;;;;;;5044960;28;1547;-67
2023/08/30 12:22:50;;;;;;;;;;;21.40;67.80;;;;;;5050445;28;1290;-67
2023/08/30 12:25:26;;;;;;;;;;;21.40;67.70;;;;;;5042176;28;1250;-66
2023/08/30 12:27:52;;;;;;;;;;;21.40;67.70;;;;;;5043940;28;1571;-66
2023/08/30 12:30:18;;;;;;;;;;;21.40;67.70;;;;;;5051281;28;1384;-66
2023/08/30 12:32:44;;;;;;;;;;;21.40;67.70;;;;;;5052385;28;848;-65
2023/08/30 12:35:10;;;;;;;;;;;21.40;67.70;;;;;;5049081;28;1894;-65
2023/08/30 12:37:35;;;;;;;;;;;21.40;67.60;;;;;;5052199;28;868;-67
2023/08/30 12:40:00;;;;;;;;;;;21.40;67.60;;;;;;5050873;28;1260;-67
2023/08/30 12:42:26;;;;;;;;;;;21.40;67.70;;;;;;5051590;28;1268;-67
2023/08/30 12:44:51;;;;;;;;;;;21.40;67.60;;;;;;5052144;28;871;-68
2023/08/30 12:47:17;;;;;;;;;;;21.40;67.70;;;;;;5052383;28;1115;-67
2023/08/30 12:49:42;;;;;;;;;;;21.40;67.70;;;;;;5051313;28;1411;-67
2023/08/30 12:52:08;;;;;;;;;;;21.40;67.60;;;;;;5051731;28;1014;-67
2023/08/30 12:54:33;;;;;;;;;;;21.40;67.60;;;;;;5051081;28;983;-67
2023/08/30 12:56:59;;;;;;;;;;;21.40;67.50;;;;;;5051368;28;1898;-67
2023/08/30 12:59:24;;;;;;;;;;;21.40;67.50;;;;;;5050885;28;1298;-67
2023/08/30 13:01:50;;;;;;;;;;;21.40;67.40;;;;;;5051097;28;974;-68
2023/08/30 13:04:15;;;;;;;;;;;21.40;67.20;;;;;;5051613;28;884;-67
2023/08/30 13:06:40;;;;;;;;;;;21.40;67.20;;;;;;5051586;28;841;-68
2023/08/30 13:09:08;;;;;;;;;;;21.40;66.30;;;;;;5050875;28;812;-67
2023/08/30 13:11:34;;;;;;;;;;;21.40;65.30;;;;;;5049958;28;1307;-68
2023/08/30 13:13:59;;;;;;;;;;;21.40;65.40;;;;;;5051335;28;934;-64
2023/08/30 13:16:25;;;;;;;;;;;21.40;65.40;;;;;;5050944;28;1905;-65
2023/08/30 13:18:50;;;;;;;;;;;21.40;65.50;;;;;;5050549;28;1284;-65
2023/08/30 13:21:15;;;;;;;;;;;21.40;65.50;;;;;;5051552;28;1314;-66
2023/08/30 13:23:41;;;;;;;;;;;21.40;65.90;;;;;;5050682;28;821;-65
2023/08/30 13:26:07;;;;;;;;;;;21.40;66.00;;;;;;5051298;28;939;-67
2023/08/30 13:28:32;;;;;;;;;;;21.40;66.00;;;;;;5051062;28;1380;-65
2023/08/30 13:30:58;;;;;;;;;;;21.40;65.80;;;;;;5050993;28;1332;-65
2023/08/30 13:33:23;;;;;;;;;;;21.40;65.90;;;;;;5051983;28;868;-65
2023/08/30 13:35:50;;;;;;;;;;;21.40;65.90;;;;;;5047028;28;1910;-65
2023/08/30 13:38:16;;;;;;;;;;;21.40;65.90;;;;;;5047917;28;871;-65
2023/08/30 13:40:41;;;;;;;;;;;21.40;65.90;;;;;;5050615;28;1340;-65
2023/08/30 13:43:07;;;;;;;;;;;21.40;66.00;;;;;;5050074;28;1077;-65
2023/08/30 13:45:32;;;;;;;;;;;21.40;66.20;;;;;;5050920;28;868;-66
2023/08/30 13:47:58;;;;;;;;;;;21.40;66.20;;;;;;5049988;28;875;-65
2023/08/30 13:50:23;;;;;;;;;;;21.40;66.20;;;;;;5051152;28;1314;-65
2023/08/30 13:52:48;;;;;;;;;;;21.40;67.10;;;;;;5051362;28;916;-66
2023/08/30 13:55:14;;;;;;;;;;;21.40;66.40;;;;;;5044347;28;1965;-66
2023/08/30 13:57:39;;;;;;;;;;;21.40;66.50;;;;;;5049901;28;907;-66
2023/08/30 14:00:09;;;;;;;;;;;21.40;66.70;;;;;;5049897;28;1292;-66
2023/08/30 14:02:35;;;;;;;;;;;21.40;66.70;;;;;;5050620;28;1327;-66
2023/08/30 14:05:01;;;;;;;;;;;21.40;66.70;;;;;;5050464;28;866;-66
2023/08/30 14:07:27;;;;;;;;;;;21.40;66.70;;;;;;5050485;28;825;-65
2023/08/30 14:09:53;;;;;;;;;;;21.40;66.80;;;;;;5049585;28;1269;-66
2023/08/30 14:12:18;;;;;;;;;;;21.40;66.70;;;;;;5050063;28;894;-66
2023/08/30 14:14:44;;;;;;;;;;;21.40;66.70;;;;;;5050520;28;1220;-65
2023/08/30 14:17:09;;;;;;;;;;;21.40;66.70;;;;;;5050183;28;1906;-66
2023/08/30 14:19:35;;;;;;;;;;;21.40;66.50;;;;;;5049608;28;1337;-66
2023/08/30 14:22:03;;;;;;;;;;;21.40;66.30;;;;;;5050768;28;812;-66
2023/08/30 14:24:29;;;;;;;;;;;21.40;66.50;;;;;;5050751;28;855;-66
2023/08/30 14:26:54;;;;;;;;;;;21.40;66.40;;;;;;5050660;28;1476;-66
2023/08/30 14:29:20;;;;;;;;;;;21.40;66.20;;;;;;5050430;28;1337;-66